Time;durP1;ratioP1;P1;durP2;ratioP2;P2;SDS_P1;SDS_P2;PMS_P1;PMS_P2;Temp;Humidity;BMP_temperature;BMP_pressure;BME280_temperature;BME280_humidity;BME280_pressure;Samples;Min_cycle;Max_cycle;Signal;HPM_P1;HPM_P2
2023/06/27 00:00:45;;;;;;;4.38;2.75;;;14.70;96.40;;;;;;5068514;28;20058;-52
2023/06/27 00:03:11;;;;;;;6.13;2.70;;;14.70;96.70;;;;;;5060504;28;20040;-56
2023/06/27 00:05:37;;;;;;;3.70;2.40;;;14.60;96.80;;;;;;5064421;28;20039;-53
2023/06/27 00:08:03;;;;;;;6.53;2.28;;;14.60;97.10;;;;;;5067067;28;20120;-55
2023/06/27 00:10:29;;;;;;;3.67;2.17;;;14.60;97.00;;;;;;5070025;28;20314;-53
2023/06/27 00:12:56;;;;;;;3.92;2.50;;;14.60;97.20;;;;;;5058272;28;20462;-57
2023/06/27 00:15:22;;;;;;;4.35;2.42;;;14.60;97.30;;;;;;5069688;28;20377;-56
2023/06/27 00:17:48;;;;;;;8.45;2.47;;;14.60;97.30;;;;;;5068054;28;20045;-54
2023/06/27 00:20:14;;;;;;;3.97;2.60;;;14.50;97.30;;;;;;5052352;28;20029;-53
2023/06/27 00:22:40;;;;;;;8.43;2.75;;;14.40;97.50;;;;;;5051926;28;20106;-56
2023/06/27 00:25:12;;;;;;;2.28;2.08;;;14.40;97.70;;;;;;5051097;28;20059;-56
2023/06/27 00:27:38;;;;;;;3.78;2.90;;;14.30;98.00;;;;;;5063795;28;20425;-54
2023/06/27 00:30:05;;;;;;;6.82;3.38;;;14.30;97.90;;;;;;5053900;28;20044;-55
2023/06/27 00:32:30;;;;;;;9.18;3.00;;;14.20;98.30;;;;;;5051782;28;20048;-56
2023/06/27 00:34:56;;;;;;;3.72;3.20;;;14.10;97.90;;;;;;5051991;28;20410;-53
2023/06/27 00:37:21;;;;;;;3.25;2.30;;;14.10;98.30;;;;;;5051649;28;20090;-55
2023/06/27 00:39:47;;;;;;;4.28;2.80;;;14.00;98.60;;;;;;5062192;28;20044;-55
2023/06/27 00:42:12;;;;;;;6.18;2.97;;;14.00;98.80;;;;;;5069816;28;20408;-56
2023/06/27 00:44:38;;;;;;;4.75;3.15;;;14.00;99.00;;;;;;5062374;28;20028;-53
2023/06/27 00:47:04;;;;;;;4.72;3.33;;;14.10;98.90;;;;;;5069152;28;20067;-54
2023/06/27 00:49:30;;;;;;;3.95;2.95;;;14.00;99.00;;;;;;5059703;28;20089;-52
2023/06/27 00:51:56;;;;;;;6.20;3.20;;;14.00;98.90;;;;;;5051706;28;20141;-54
2023/06/27 00:54:23;;;;;;;8.43;3.30;;;14.00;99.10;;;;;;5053984;28;20039;-55
2023/06/27 00:56:53;;;;;;;6.63;3.70;;;14.00;99.10;;;;;;5051550;28;20433;-55
2023/06/27 00:59:19;;;;;;;7.68;3.88;;;13.90;99.00;;;;;;5052050;28;20418;-56
2023/06/27 01:01:45;;;;;;;7.22;3.30;;;13.90;99.10;;;;;;5051582;28;20033;-53
2023/06/27 01:04:11;;;;;;;4.15;2.83;;;13.80;99.40;;;;;;5058314;28;20036;-57
2023/06/27 01:07:04;;;;;;;6.25;3.40;;;13.80;99.60;;;;;;5051348;28;20090;-55
2023/06/27 01:09:51;;;;;;;4.15;2.67;;;13.80;99.90;;;;;;5061342;28;20439;-53
2023/06/27 01:12:30;;;;;;;6.30;3.53;;;13.70;99.90;;;;;;5058516;28;20475;-52
2023/06/27 01:14:57;;;;;;;5.88;3.58;;;13.70;99.90;;;;;;5054967;28;20037;-54
2023/06/27 01:17:25;;;;;;;9.52;4.22;;;13.60;99.90;;;;;;5057342;28;20098;-53
2023/06/27 01:19:52;;;;;;;7.13;3.88;;;13.70;99.90;;;;;;5066437;28;20033;-54
2023/06/27 01:22:30;;;;;;;6.07;3.40;;;13.60;99.90;;;;;;5054490;28;20036;-53
2023/06/27 01:24:59;;;;;;;6.60;4.03;;;13.60;99.90;;;;;;5057223;28;20552;-52
2023/06/27 01:27:28;;;;;;;7.18;3.60;;;13.60;99.90;;;;;;5049931;28;20055;-53
2023/06/27 01:29:54;;;;;;;8.35;3.53;;;13.60;99.90;;;;;;5061001;28;20040;-52
2023/06/27 01:32:24;;;;;;;6.95;4.03;;;13.60;99.90;;;;;;5069238;28;20040;-52
2023/06/27 01:35:03;;;;;;;6.18;4.20;;;13.60;99.90;;;;;;5058982;28;20045;-52
2023/06/27 01:37:32;;;;;;;5.03;4.10;;;13.60;99.90;;;;;;5065766;28;20493;-56
2023/06/27 01:40:02;;;;;;;8.95;5.47;;;13.60;99.90;;;;;;5059441;28;20041;-55
2023/06/27 01:42:34;;;;;;;5.85;3.90;;;13.60;99.90;;;;;;5050729;28;20044;-52
2023/06/27 01:45:02;;;;;;;5.53;4.07;;;13.50;99.90;;;;;;5058245;28;20037;-55
2023/06/27 01:47:28;;;;;;;11.82;4.88;;;13.50;99.90;;;;;;5066790;28;20075;-58
2023/06/27 01:49:54;;;;;;;13.63;4.97;;;13.50;99.90;;;;;;5061842;28;20045;-56
2023/06/27 01:52:20;;;;;;;6.78;4.10;;;13.50;99.90;;;;;;5062677;28;20047;-56
2023/06/27 01:54:46;;;;;;;9.73;4.78;;;13.50;99.90;;;;;;5054325;28;20044;-55
2023/06/27 01:57:12;;;;;;;7.40;3.72;;;13.50;99.90;;;;;;5068487;28;20044;-52
2023/06/27 01:59:38;;;;;;;8.10;4.43;;;13.40;99.90;;;;;;5063699;28;20112;-55
2023/06/27 02:02:04;;;;;;;9.65;3.78;;;13.50;99.90;;;;;;5051390;28;20037;-52
2023/06/27 02:04:29;;;;;;;6.18;4.60;;;13.50;99.90;;;;;;5053002;28;20170;-52
2023/06/27 02:06:55;;;;;;;9.55;3.95;;;13.40;99.90;;;;;;5067684;28;20518;-54
2023/06/27 02:09:21;;;;;;;20.17;4.00;;;13.40;99.90;;;;;;5066872;28;20116;-55
2023/06/27 02:11:46;;;;;;;5.47;3.28;;;13.40;99.90;;;;;;5050084;28;20096;-54
2023/06/27 02:14:12;;;;;;;9.82;3.78;;;13.40;99.90;;;;;;5049328;28;20028;-56
2023/06/27 02:16:38;;;;;;;9.13;4.43;;;13.30;99.90;;;;;;5066249;28;20047;-55
2023/06/27 02:19:04;;;;;;;7.05;3.55;;;13.30;99.90;;;;;;5064291;28;20044;-52
2023/06/27 02:21:30;;;;;;;4.95;4.13;;;13.40;99.90;;;;;;5053735;28;20036;-55
2023/06/27 02:23:55;;;;;;;5.22;4.18;;;13.40;99.90;;;;;;5056891;28;20036;-55
2023/06/27 02:26:21;;;;;;;9.32;4.43;;;13.40;99.90;;;;;;5058461;28;20437;-52
2023/06/27 02:28:47;;;;;;;6.65;4.18;;;13.40;99.90;;;;;;5067455;28;20082;-52
2023/06/27 02:31:12;;;;;;;5.68;4.05;;;13.40;99.90;;;;;;5053798;28;20502;-55
2023/06/27 02:33:38;;;;;;;14.10;5.32;;;13.40;99.90;;;;;;5065731;28;20040;-53
2023/06/27 02:36:04;;;;;;;9.27;4.80;;;13.50;99.90;;;;;;5055704;28;20037;-53
2023/06/27 02:38:30;;;;;;;11.63;5.15;;;13.50;99.90;;;;;;5048208;28;20506;-53
2023/06/27 02:40:55;;;;;;;8.30;5.35;;;13.50;99.90;;;;;;5059900;28;20036;-53
2023/06/27 02:43:21;;;;;;;15.88;6.72;;;13.50;99.90;;;;;;5065843;28;20179;-56
2023/06/27 02:45:47;;;;;;;8.90;5.28;;;13.50;99.90;;;;;;5058025;28;20116;-56
2023/06/27 02:48:12;;;;;;;6.63;5.47;;;13.50;99.90;;;;;;5055540;28;20040;-53
2023/06/27 02:50:38;;;;;;;6.22;4.85;;;13.40;99.90;;;;;;5060772;28;20108;-52
2023/06/27 02:53:04;;;;;;;7.72;5.78;;;13.40;99.90;;;;;;5049050;28;20401;-52
2023/06/27 02:55:30;;;;;;;5.72;4.90;;;13.40;99.90;;;;;;5049931;28;20044;-53
2023/06/27 02:57:56;;;;;;;7.43;5.10;;;13.40;99.90;;;;;;5063588;28;20398;-57
2023/06/27 03:00:21;;;;;;;9.43;5.25;;;13.40;99.90;;;;;;5063756;28;20032;-56
2023/06/27 03:02:47;;;;;;;11.75;5.10;;;13.40;99.90;;;;;;5056350;28;20116;-52
2023/06/27 03:05:12;;;;;;;7.75;4.63;;;13.40;99.90;;;;;;5065205;28;20386;-52
2023/06/27 03:07:38;;;;;;;12.55;4.68;;;13.40;99.90;;;;;;5048505;28;20037;-54
2023/06/27 03:10:04;;;;;;;10.65;5.22;;;13.40;99.90;;;;;;5049681;28;20039;-58
2023/06/27 03:12:29;;;;;;;9.05;4.55;;;13.50;99.90;;;;;;5055488;28;20486;-56
2023/06/27 03:14:55;;;;;;;6.47;4.95;;;13.50;99.90;;;;;;5066642;28;20082;-52
2023/06/27 03:17:21;;;;;;;8.73;5.43;;;13.50;99.90;;;;;;5065816;28;20131;-53
2023/06/27 03:19:47;;;;;;;13.05;5.70;;;13.50;99.90;;;;;;5067362;28;20370;-53
2023/06/27 03:22:13;;;;;;;6.68;4.55;;;13.60;99.90;;;;;;5051762;28;20047;-52
2023/06/27 03:24:38;;;;;;;14.73;6.70;;;13.60;99.90;;;;;;5048961;28;20047;-57
2023/06/27 03:27:04;;;;;;;7.40;4.90;;;13.60;99.90;;;;;;5060889;28;20037;-55
2023/06/27 03:29:30;;;;;;;10.65;5.53;;;13.60;99.90;;;;;;5065287;28;20095;-53
2023/06/27 03:31:57;;;;;;;5.20;4.70;;;13.60;99.90;;;;;;5059023;28;20045;-52
2023/06/27 03:34:23;;;;;;;7.20;5.22;;;13.70;99.90;;;;;;5048615;28;20101;-55
2023/06/27 03:36:48;;;;;;;13.77;5.70;;;13.70;99.90;;;;;;5054467;28;21644;-57
2023/06/27 03:39:14;;;;;;;6.53;4.95;;;13.70;99.90;;;;;;5054211;28;20049;-53
2023/06/27 03:41:39;;;;;;;6.45;4.80;;;13.70;99.90;;;;;;5060907;28;20043;-53
2023/06/27 03:44:05;;;;;;;10.82;5.57;;;13.70;99.90;;;;;;5060234;28;20029;-58
2023/06/27 03:46:30;;;;;;;6.90;5.18;;;13.70;99.90;;;;;;5056193;28;20119;-54
2023/06/27 03:48:58;;;;;;;10.00;5.30;;;13.70;99.90;;;;;;5066781;28;20044;-53
2023/06/27 03:51:24;;;;;;;7.82;4.82;;;13.70;99.90;;;;;;5061879;28;20421;-55
2023/06/27 03:53:49;;;;;;;;;;;13.80;99.90;;;;;;5066785;28;20051;-55
2023/06/27 03:56:16;;;;;;;12.93;4.60;;;13.80;99.90;;;;;;5062929;28;19940;-54
2023/06/27 03:58:41;;;;;;;;;;;13.80;99.90;;;;;;5061610;28;20063;-52
2023/06/27 04:01:07;;;;;;;8.30;5.50;;;13.90;99.90;;;;;;5068783;28;20389;-53
2023/06/27 04:03:32;;;;;;;10.82;4.80;;;13.90;99.90;;;;;;5052087;28;20366;-53
2023/06/27 04:05:58;;;;;;;7.82;4.78;;;13.90;99.90;;;;;;5066875;28;20149;-54
2023/06/27 04:08:24;;;;;;;12.77;5.93;;;14.00;99.90;;;;;;5051682;28;20032;-53
2023/06/27 04:10:49;;;;;;;8.77;5.20;;;14.00;99.90;;;;;;5052534;28;20033;-54
2023/06/27 04:13:15;;;;;;;13.68;6.75;;;14.10;99.90;;;;;;5060674;28;20056;-54
2023/06/27 04:15:40;;;;;;;9.73;6.57;;;14.10;99.90;;;;;;5066343;28;20032;-53
2023/06/27 04:18:06;;;;;;;9.55;6.13;;;14.20;99.90;;;;;;5053941;28;20029;-53
2023/06/27 04:20:32;;;;;;;;;;;14.20;99.90;;;;;;5052040;28;20083;-53
2023/06/27 04:22:58;;;;;;;11.02;6.70;;;14.20;99.90;;;;;;5065651;28;20376;-55
2023/06/27 04:25:25;;;;;;;10.30;6.80;;;14.30;99.90;;;;;;5066846;28;20060;-54
2023/06/27 04:27:50;;;;;;;18.05;7.45;;;14.30;99.90;;;;;;5063485;28;20052;-52
2023/06/27 04:30:16;;;;;;;10.68;6.85;;;14.40;99.90;;;;;;5069878;28;20036;-54
2023/06/27 04:32:43;;;;;;;14.63;8.02;;;14.40;99.90;;;;;;5059887;28;20532;-55
2023/06/27 04:35:09;;;;;;;11.77;7.68;;;14.50;99.90;;;;;;5050855;28;20075;-53
2023/06/27 04:37:37;;;;;;;14.18;8.82;;;14.50;99.90;;;;;;5060252;28;20390;-52
2023/06/27 04:40:03;;;;;;;13.80;9.02;;;14.60;99.90;;;;;;5065474;28;20029;-55
2023/06/27 04:42:28;;;;;;;17.42;7.72;;;14.60;99.90;;;;;;5059141;28;20086;-53
2023/06/27 04:44:55;;;;;;;13.23;9.00;;;14.70;99.90;;;;;;5056164;28;20440;-55
2023/06/27 04:47:22;;;;;;;17.23;8.73;;;14.70;99.90;;;;;;5052236;28;20037;-54
2023/06/27 04:49:48;;;;;;;18.35;8.85;;;14.80;99.90;;;;;;5059920;28;20052;-53
2023/06/27 04:52:13;;;;;;;13.48;8.63;;;14.90;99.90;;;;;;5060864;28;20576;-52
2023/06/27 04:54:40;;;;;;;11.52;8.45;;;15.00;99.90;;;;;;5067382;28;20033;-53
2023/06/27 04:57:06;;;;;;;12.90;8.00;;;15.00;99.90;;;;;;5068528;28;20047;-52
2023/06/27 04:59:31;;;;;;;13.98;8.40;;;15.10;99.90;;;;;;5057856;28;20111;-53
2023/06/27 05:01:57;;;;;;;11.75;6.95;;;15.20;99.90;;;;;;5053026;28;20060;-54
2023/06/27 05:04:22;;;;;;;16.83;8.70;;;15.20;99.90;;;;;;5068703;28;20040;-53
2023/06/27 05:06:48;;;;;;;12.45;7.03;;;15.30;99.90;;;;;;5067337;28;20515;-53
2023/06/27 05:09:14;;;;;;;14.70;7.88;;;15.40;99.90;;;;;;5064532;28;20044;-52
2023/06/27 05:11:39;;;;;;;13.02;7.55;;;15.50;99.90;;;;;;5068591;28;20082;-55
2023/06/27 05:14:05;;;;;;;20.40;8.55;;;15.60;99.90;;;;;;5052324;28;20068;-53
2023/06/27 05:16:31;;;;;;;17.98;7.43;;;15.70;99.90;;;;;;5058211;28;20489;-54
2023/06/27 05:18:57;;;;;;;17.83;7.53;;;15.80;99.90;;;;;;5054769;28;20068;-53
2023/06/27 05:21:22;;;;;;;15.95;7.55;;;15.90;99.90;;;;;;5051399;28;20486;-52
2023/06/27 05:23:49;;;;;;;13.77;7.40;;;16.00;99.90;;;;;;5064469;28;20043;-53
2023/06/27 05:26:14;;;;;;;;;;;16.20;99.90;;;;;;5069557;28;20064;-53
2023/06/27 05:28:40;;;;;;;11.70;6.25;;;16.30;99.90;;;;;;5056999;28;19964;-55
2023/06/27 05:31:05;;;;;;;9.68;6.88;;;16.40;99.90;;;;;;5050692;28;20037;-57
2023/06/27 05:33:31;;;;;;;11.02;6.38;;;16.50;99.90;;;;;;5059807;28;20040;-53
2023/06/27 05:35:57;;;;;;;16.08;7.55;;;16.60;99.90;;;;;;5060616;28;20394;-56
2023/06/27 05:38:22;;;;;;;16.15;8.07;;;16.70;99.90;;;;;;5055364;28;20127;-55
2023/06/27 05:40:48;;;;;;;13.27;7.32;;;16.80;99.90;;;;;;5049397;28;20059;-56
2023/06/27 05:43:13;;;;;;;14.10;6.47;;;16.90;99.90;;;;;;5056573;28;20485;-53
2023/06/27 05:45:39;;;;;;;12.65;6.97;;;17.00;99.90;;;;;;5068418;28;20028;-54
2023/06/27 05:48:05;;;;;;;11.23;6.20;;;17.00;99.90;;;;;;5063264;28;20075;-54
2023/06/27 05:50:30;;;;;;;10.35;6.65;;;17.10;99.90;;;;;;5059674;28;20063;-55
2023/06/27 05:52:56;;;;;;;17.38;6.80;;;17.20;99.90;;;;;;5052470;28;20124;-56
2023/06/27 05:55:21;;;;;;;7.53;5.38;;;17.30;99.90;;;;;;5060006;28;20450;-53
2023/06/27 05:57:47;;;;;;;10.45;5.88;;;17.40;99.90;;;;;;5056797;28;20056;-53
2023/06/27 06:00:14;;;;;;;9.13;5.32;;;17.50;99.90;;;;;;5058390;28;20044;-56
2023/06/27 06:02:42;;;;;;;10.35;5.28;;;17.60;99.90;;;;;;5060239;28;20115;-53
2023/06/27 06:05:10;;;;;;;8.73;4.45;;;17.70;99.90;;;;;;5062719;28;20040;-57
2023/06/27 06:07:38;;;;;;;12.70;5.32;;;17.80;99.90;;;;;;5065677;28;20048;-54
2023/06/27 06:10:05;;;;;;;11.05;4.45;;;17.80;99.90;;;;;;5055041;28;20040;-58
2023/06/27 06:12:30;;;;;;;8.00;4.05;;;17.90;99.90;;;;;;5060274;28;20045;-55
2023/06/27 06:14:56;;;;;;;11.40;5.00;;;18.00;99.90;;;;;;5064806;28;20037;-55
2023/06/27 06:17:21;;;;;;;12.25;4.22;;;18.10;99.90;;;;;;5057526;28;20072;-57
2023/06/27 06:19:47;;;;;;;6.03;3.67;;;18.20;99.90;;;;;;5059433;28;20044;-57
2023/06/27 06:22:12;;;;;;;11.07;3.60;;;18.30;99.90;;;;;;5054396;28;20037;-59
2023/06/27 06:24:38;;;;;;;11.65;2.67;;;18.40;99.90;;;;;;5056263;28;20036;-54
2023/06/27 06:27:04;;;;;;;6.00;2.28;;;18.50;99.90;;;;;;5057167;28;20509;-54
2023/06/27 06:29:29;;;;;;;;;;;18.60;99.90;;;;;;5056987;28;20041;-55
2023/06/27 06:31:55;;;;;;;5.43;2.10;;;18.70;99.90;;;;;;5052805;28;19979;-56
2023/06/27 06:34:21;;;;;;;;;;;18.80;99.90;;;;;;5056730;28;20036;-54
2023/06/27 06:36:46;;;;;;;6.28;1.48;;;18.90;99.90;;;;;;5056313;28;19936;-51
2023/06/27 06:39:12;;;;;;;6.30;1.60;;;19.00;99.90;;;;;;5057777;28;20914;-54
2023/06/27 06:41:37;;;;;;;;;;;19.20;99.90;;;;;;5053113;28;20374;-55
2023/06/27 06:44:03;;;;;;;11.20;2.53;;;19.30;99.90;;;;;;5056378;28;19916;-52
2023/06/27 06:46:28;;;;;;;;;;;19.40;99.90;;;;;;5060618;28;20060;-52
2023/06/27 06:48:54;;;;;;;2.80;0.82;;;19.60;99.90;;;;;;5061325;28;19940;-54
2023/06/27 06:51:22;;;;;;;;;;;19.60;99.90;;;;;;5050058;28;20128;-56
2023/06/27 06:53:48;;;;;;;5.05;1.38;;;19.80;99.90;;;;;;5053299;28;20011;-55
2023/06/27 06:56:14;;;;;;;3.47;0.70;;;19.90;99.90;;;;;;5067613;28;20116;-54
2023/06/27 06:58:40;;;;;;;6.80;1.15;;;20.00;99.90;;;;;;5063372;28;20041;-54
2023/06/27 07:01:05;;;;;;;;;;;20.10;99.90;;;;;;5055883;28;20568;-52
2023/06/27 07:03:33;;;;;;;7.30;0.82;;;20.30;99.90;;;;;;5058799;28;19916;-54
2023/06/27 07:05:59;;;;;;;2.17;0.70;;;20.40;99.90;;;;;;5060959;28;20423;-58
2023/06/27 07:08:25;;;;;;;6.90;0.63;;;20.50;99.30;;;;;;5056667;28;20044;-58
2023/06/27 07:10:50;;;;;;;;;;;20.70;98.90;;;;;;5057137;28;20040;-56
2023/06/27 07:13:16;;;;;;;4.25;0.70;;;20.70;97.30;;;;;;5051134;28;19916;-55
2023/06/27 07:15:41;;;;;;;;;;;20.80;97.90;;;;;;5054588;28;20033;-52
2023/06/27 07:18:07;;;;;;;9.45;0.60;;;20.80;96.90;;;;;;5048805;28;19928;-53
2023/06/27 07:20:32;;;;;;;;;;;20.80;96.80;;;;;;5056046;28;20505;-54
2023/06/27 07:22:58;;;;;;;3.28;0.88;;;20.80;95.90;;;;;;5050936;28;19932;-54
2023/06/27 07:25:24;;;;;;;;;;;20.90;96.30;;;;;;5055944;28;20059;-53
2023/06/27 07:27:50;;;;;;;4.90;0.80;;;20.90;95.40;;;;;;5054686;28;19917;-51
2023/06/27 07:30:15;;;;;;;;;;;21.00;95.80;;;;;;5055465;28;20413;-56
2023/06/27 07:32:41;;;;;;;2.15;0.55;;;21.20;95.00;;;;;;5057305;28;19916;-57
2023/06/27 07:35:07;;;;;;;;;;;21.30;95.30;;;;;;5053447;28;20497;-55
2023/06/27 07:37:32;;;;;;;6.82;0.68;;;21.40;94.50;;;;;;5052237;28;19925;-55
2023/06/27 07:39:58;;;;;;;;;;;21.40;94.50;;;;;;5054765;28;20401;-53
2023/06/27 07:42:24;;;;;;;2.05;0.40;;;21.50;93.20;;;;;;5057296;28;19951;-58
2023/06/27 07:44:50;;;;;;;4.70;0.50;;;21.70;94.00;;;;;;5052680;28;20437;-58
2023/06/27 07:47:15;;;;;;;;;;;21.70;93.30;;;;;;5055680;28;20037;-57
2023/06/27 07:49:41;;;;;;;4.75;0.52;;;21.80;93.20;;;;;;5054187;28;20321;-55
2023/06/27 07:52:07;;;;;;;;;;;21.80;92.90;;;;;;5053841;28;20588;-56
2023/06/27 07:54:33;;;;;;;8.23;0.40;;;21.90;92.10;;;;;;5053794;28;20448;-57
2023/06/27 07:56:59;;;;;;;5.30;0.60;;;21.90;92.40;;;;;;5049443;28;20044;-58
2023/06/27 07:59:24;;;;;;;;;;;21.80;91.70;;;;;;5053148;28;20033;-53
2023/06/27 08:01:50;;;;;;;1.27;0.30;;;21.70;90.80;;;;;;5051873;28;19962;-56
2023/06/27 08:04:16;;;;;;;;;;;21.70;91.60;;;;;;5053686;28;20048;-53
2023/06/27 08:06:42;;;;;;;2.85;0.30;;;21.70;91.20;;;;;;5057075;28;20544;-54
2023/06/27 08:09:07;;;;;;;;;;;21.70;91.40;;;;;;5051620;28;20174;-59
2023/06/27 08:11:33;;;;;;;2.67;0.38;;;21.60;90.90;;;;;;5056164;28;19946;-55
2023/06/27 08:13:58;;;;;;;4.90;0.25;;;21.40;90.80;;;;;;5052998;28;20039;-55
2023/06/27 08:16:24;;;;;;;;;;;21.20;90.20;;;;;;5058151;28;20409;-57
2023/06/27 08:18:50;;;;;;;2.70;0.40;;;21.00;89.40;;;;;;5056987;28;19927;-52
2023/06/27 08:21:15;;;;;;;;;;;20.90;90.90;;;;;;5057518;28;20041;-58
2023/06/27 08:23:42;;;;;;;4.00;0.30;;;20.80;90.60;;;;;;5053624;28;19931;-58
2023/06/27 08:26:08;;;;;;;3.42;0.35;;;20.90;91.00;;;;;;5059105;28;20048;-52
2023/06/27 08:28:33;;;;;;;;;;;21.00;91.00;;;;;;5053654;28;20032;-53
2023/06/27 08:30:59;;;;;;;3.75;0.40;;;21.10;91.00;;;;;;5050337;28;20346;-55
2023/06/27 08:33:25;;;;;;;;;;;21.30;91.00;;;;;;5049808;28;20041;-54
2023/06/27 08:35:50;;;;;;;1.77;0.30;;;21.50;90.90;;;;;;5049227;28;19916;-59
2023/06/27 08:38:17;;;;;;;;;;;21.70;90.60;;;;;;5060919;28;20069;-55
2023/06/27 08:40:44;;;;;;;4.93;0.23;;;21.80;90.00;;;;;;5060178;28;19917;-53
2023/06/27 08:43:10;;;;;;;1.05;0.17;;;21.90;90.10;;;;;;5055353;28;20041;-56
2023/06/27 08:45:38;;;;;;;2.03;0.45;;;22.10;89.20;;;;;;5054172;28;20539;-56
2023/06/27 08:48:06;;;;;;;2.28;0.32;;;22.30;89.00;;;;;;5054525;28;20040;-54
2023/06/27 08:50:41;;;;;;;2.83;0.30;;;22.50;88.80;;;;;;5055238;28;20078;-55
2023/06/27 08:53:17;;;;;;;4.00;0.20;;;22.70;87.60;;;;;;5053658;28;20548;-58
2023/06/27 08:55:52;;;;;;;2.22;0.32;;;22.90;86.80;;;;;;5053158;28;20046;-53
2023/06/27 08:58:23;;;;;;;2.10;0.20;;;23.10;85.40;;;;;;5053448;28;20049;-58
2023/06/27 09:00:49;;;;;;;3.13;0.30;;;23.00;84.90;;;;;;5058431;28;20040;-53
2023/06/27 09:03:16;;;;;;;4.93;0.20;;;22.90;84.80;;;;;;5054874;28;20494;-53
2023/06/27 09:05:42;;;;;;;3.83;0.88;;;23.00;87.10;;;;;;5050484;28;20608;-56
2023/06/27 09:08:08;;;;;;;5.47;0.20;;;23.10;84.30;;;;;;5054581;28;20484;-56
2023/06/27 09:10:34;;;;;;;;;;;23.10;85.60;;;;;;5052217;28;20029;-57
2023/06/27 09:13:00;;;;;;;6.88;0.50;;;23.10;84.00;;;;;;5057458;28;19928;-56
2023/06/27 09:15:26;;;;;;;4.25;0.30;;;23.10;84.90;;;;;;5055688;28;20037;-56
2023/06/27 09:17:52;;;;;;;;;;;23.00;84.10;;;;;;5057381;28;20040;-58
2023/06/27 09:20:19;;;;;;;6.15;0.25;;;23.00;81.80;;;;;;5061775;28;19931;-56
2023/06/27 09:22:45;;;;;;;4.38;0.20;;;22.90;83.60;;;;;;5054745;28;20029;-54
2023/06/27 09:25:12;;;;;;;6.18;0.30;;;22.90;82.50;;;;;;5057775;28;20529;-53
2023/06/27 09:27:38;;;;;;;1.20;0.30;;;22.80;82.30;;;;;;5055491;28;20044;-53
2023/06/27 09:30:11;;;;;;;1.10;0.38;;;22.80;82.70;;;;;;5056834;28;20490;-56
2023/06/27 09:32:51;;;;;;;2.78;0.30;;;22.80;81.80;;;;;;5060241;28;20037;-53
2023/06/27 09:35:17;;;;;;;5.40;0.30;;;22.60;82.50;;;;;;5053473;28;20358;-54
2023/06/27 09:37:42;;;;;;;;;;;22.50;82.80;;;;;;5056982;28;20033;-53
2023/06/27 09:40:24;;;;;;;2.00;0.20;;;22.60;83.00;;;;;;5053747;28;19974;-55
2023/06/27 09:42:51;;;;;;;2.85;0.40;;;22.70;82.80;;;;;;5058252;28;20028;-56
2023/06/27 09:45:18;;;;;;;2.30;0.40;;;22.60;82.80;;;;;;5057048;28;20052;-55
2023/06/27 09:47:44;;;;;;;2.70;0.20;;;22.40;82.40;;;;;;5051329;28;20087;-54
2023/06/27 09:50:09;;;;;;;;;;;22.40;83.90;;;;;;5055105;28;20076;-56
2023/06/27 09:52:35;;;;;;;4.65;0.75;;;22.30;82.40;;;;;;5056024;28;19935;-54
2023/06/27 09:55:00;;;;;;;4.68;0.20;;;22.30;84.40;;;;;;5057265;28;20581;-56
2023/06/27 09:57:29;;;;;;;;;;;22.30;84.30;;;;;;5055372;28;20047;-54
2023/06/27 09:59:58;;;;;;;4.47;0.40;;;22.30;82.10;;;;;;5056432;28;19916;-58
2023/06/27 10:02:28;;;;;;;2.38;0.25;;;22.40;83.00;;;;;;5058827;28;20044;-56
2023/06/27 10:04:53;;;;;;;2.85;0.32;;;22.40;83.10;;;;;;5054778;28;20167;-53
2023/06/27 10:07:19;;;;;;;;;;;22.40;83.90;;;;;;5057100;28;20039;-53
2023/06/27 10:09:45;;;;;;;5.90;0.30;;;22.30;82.10;;;;;;5049800;28;19920;-56
2023/06/27 10:12:14;;;;;;;6.78;0.50;;;22.30;83.00;;;;;;5054053;28;20045;-54
2023/06/27 10:14:39;;;;;;;3.20;0.20;;;22.40;83.60;;;;;;5050187;28;20041;-54
2023/06/27 10:17:05;;;;;;;;;;;22.40;82.60;;;;;;5054101;28;20041;-54
2023/06/27 10:19:34;;;;;;;3.70;0.30;;;22.40;80.80;;;;;;5047129;28;19931;-56
2023/06/27 10:22:01;;;;;;;11.18;0.35;;;22.40;82.00;;;;;;5045727;28;20037;-51
2023/06/27 10:24:29;;;;;;;1.73;0.20;;;22.50;82.30;;;;;;5051004;28;20107;-54
2023/06/27 10:26:57;;;;;;;3.53;0.45;;;22.50;81.40;;;;;;5059137;28;20059;-53
2023/06/27 10:29:23;;;;;;;5.70;0.80;;;22.50;81.10;;;;;;5062200;28;20044;-53
2023/06/27 10:31:50;;;;;;;5.10;0.55;;;22.50;81.60;;;;;;5058665;28;20048;-49
2023/06/27 10:34:24;;;;;;;6.82;0.55;;;22.50;80.90;;;;;;5065574;28;20062;-50
2023/06/27 10:37:01;;;;;;;5.38;0.60;;;22.50;82.10;;;;;;5049009;28;20044;-55
2023/06/27 10:39:28;;;;;;;3.92;0.30;;;22.60;81.00;;;;;;5058795;28;20541;-50
2023/06/27 10:42:01;;;;;;;2.30;0.22;;;22.60;81.40;;;;;;5050817;28;20653;-55
2023/06/27 10:44:27;;;;;;;4.10;0.38;;;22.60;81.00;;;;;;5058409;28;20374;-54
2023/06/27 10:47:14;;;;;;;1.90;0.20;;;22.70;81.50;;;;;;5052365;28;20048;-52
2023/06/27 10:49:40;;;;;;;5.43;0.40;;;22.90;80.90;;;;;;5057596;28;20048;-51
2023/06/27 10:52:10;;;;;;;;;;;23.00;79.90;;;;;;5056379;28;20771;-55
2023/06/27 10:54:41;;;;;;;3.88;0.35;;;22.80;80.40;;;;;;5060810;28;20173;-55
2023/06/27 10:57:06;;;;;;;2.15;0.30;;;22.90;82.00;;;;;;5049629;28;20048;-54
2023/06/27 10:59:33;;;;;;;;;;;23.00;81.90;;;;;;5055615;28;20043;-54
2023/06/27 11:02:00;;;;;;;;;;;23.20;81.80;;;;;;5051475;28;19951;-54
2023/06/27 11:04:42;;;;;;;5.00;0.45;;;23.40;81.60;;;;;;5060781;28;19977;-53
2023/06/27 11:07:14;;;;;;;1.55;0.50;;;23.60;79.60;;;;;;5055798;28;20064;-53
2023/06/27 11:09:55;;;;;;;4.65;0.25;;;23.60;79.00;;;;;;5055571;28;20045;-54
2023/06/27 11:12:22;;;;;;;7.55;0.47;;;23.60;77.40;;;;;;5055645;28;20374;-57
2023/06/27 11:14:51;;;;;;;5.85;0.40;;;23.50;78.80;;;;;;5060344;28;20513;-51
2023/06/27 11:17:18;;;;;;;1.05;0.30;;;23.60;78.40;;;;;;5055907;28;20452;-55
2023/06/27 11:19:43;;;;;;;6.47;0.40;;;23.50;78.50;;;;;;5053638;28;20033;-56
2023/06/27 11:22:10;;;;;;;1.77;0.20;;;23.50;78.50;;;;;;5058679;28;20094;-57
2023/06/27 11:24:38;;;;;;;2.45;0.40;;;23.50;78.30;;;;;;5064092;28;20127;-55
2023/06/27 11:27:06;;;;;;;2.60;0.20;;;23.50;77.30;;;;;;5051392;28;20055;-51
2023/06/27 11:29:33;;;;;;;2.05;0.35;;;23.50;78.10;;;;;;5060203;28;20067;-56
2023/06/27 11:31:59;;;;;;;5.60;0.45;;;23.60;79.10;;;;;;5049873;28;20091;-56
2023/06/27 11:34:25;;;;;;;3.63;0.30;;;23.70;78.60;;;;;;5059653;28;20056;-54
2023/06/27 11:36:51;;;;;;;2.13;0.30;;;23.70;78.80;;;;;;5056531;28;20063;-54
2023/06/27 11:39:16;;;;;;;2.30;0.20;;;23.70;79.20;;;;;;5053119;28;20075;-53
2023/06/27 11:41:44;;;;;;;1.10;0.30;;;23.70;79.20;;;;;;5055748;28;20037;-54
2023/06/27 11:44:11;;;;;;;3.67;0.30;;;23.70;80.70;;;;;;5053992;28;20032;-51
2023/06/27 11:46:53;;;;;;;2.95;0.30;;;23.70;79.60;;;;;;5049272;28;20152;-54
2023/06/27 11:49:27;;;;;;;4.75;0.25;;;23.50;78.30;;;;;;5055891;28;20497;-51
2023/06/27 11:51:57;;;;;;;2.65;0.40;;;23.50;78.40;;;;;;5056350;28;20305;-52
2023/06/27 11:54:23;;;;;;;6.13;0.43;;;23.40;78.50;;;;;;5055631;28;20047;-58
2023/06/27 11:56:49;;;;;;;3.50;0.47;;;23.20;79.20;;;;;;5056955;28;20049;-50
2023/06/27 11:59:14;;;;;;;4.20;0.52;;;23.00;79.40;;;;;;5058243;28;20037;-54
2023/06/27 12:01:41;;;;;;;4.22;0.50;;;22.90;80.10;;;;;;5055879;28;20036;-52
2023/06/27 12:04:15;;;;;;;1.13;0.65;;;22.80;79.40;;;;;;5054911;28;20199;-53
2023/06/27 12:06:42;;;;;;;3.08;0.35;;;22.80;79.30;;;;;;5059562;28;20094;-50
2023/06/27 12:09:18;;;;;;;3.03;0.47;;;22.90;79.30;;;;;;5056666;28;20039;-55
2023/06/27 12:11:43;;;;;;;2.08;0.20;;;23.00;80.10;;;;;;5057675;28;20125;-53
2023/06/27 12:14:09;;;;;;;4.82;0.80;;;23.20;80.10;;;;;;5057638;28;20077;-54
2023/06/27 12:16:35;;;;;;;3.05;0.30;;;23.40;79.60;;;;;;5054488;28;21578;-53
2023/06/27 12:19:04;;;;;;;1.55;0.20;;;23.40;79.00;;;;;;5050299;28;20064;-51
2023/06/27 12:21:30;;;;;;;1.05;0.30;;;23.50;77.70;;;;;;5054717;28;20183;-55
2023/06/27 12:23:55;;;;;;;5.47;0.20;;;23.40;75.80;;;;;;5053558;28;20033;-50
2023/06/27 12:26:21;;;;;;;2.78;0.20;;;23.40;76.50;;;;;;5061830;28;20542;-54
2023/06/27 12:29:00;;;;;;;2.95;0.32;;;23.50;76.60;;;;;;5062233;28;20040;-53
2023/06/27 12:31:26;;;;;;;3.13;0.50;;;23.40;75.80;;;;;;5050213;28;20033;-54
2023/06/27 12:33:53;;;;;;;5.20;0.80;;;23.20;76.60;;;;;;5061788;28;20040;-55
2023/06/27 12:36:23;;;;;;;3.30;0.40;;;23.20;77.90;;;;;;5059896;28;20409;-53
2023/06/27 12:38:49;;;;;;;3.15;0.45;;;23.30;78.30;;;;;;5055765;28;20080;-56
2023/06/27 12:41:19;;;;;;;2.85;0.85;;;23.40;78.00;;;;;;5056794;28;20664;-55
2023/06/27 12:43:45;;;;;;;6.63;0.30;;;23.60;77.50;;;;;;5063965;28;20377;-56
2023/06/27 12:46:11;;;;;;;5.18;0.40;;;23.80;77.20;;;;;;5050752;28;20049;-55
2023/06/27 12:48:36;;;;;;;2.35;0.40;;;23.80;77.30;;;;;;5055952;28;20033;-54
2023/06/27 12:51:02;;;;;;;3.13;0.30;;;23.90;76.70;;;;;;5057868;28;20431;-51
2023/06/27 12:53:28;;;;;;;5.22;0.45;;;24.00;76.20;;;;;;5048399;28;20032;-51